Station: Maningrida Airport  

  Atmospheric Gas Attenuation - ITU Rec 676-11   ----------------- dB/100km -----------------
Date Time Temp RH % AH g/m3 Dew Point Wind Direction Speed kph Gust kph Barometer mB Rainfall Since 9am 24GHz 47GHz 76GHz 122GHz 134GHz 241GHz
07/09 03:40 22 89 17.27 20.1 6 7 1014.2 0 37.6 38.2 72.0 190.4 206.9 718.1
07/09 03:30 24 83 18.06 20.9 7 9 1014.3 0 39.1 38.8 73.8 195.2 213.4 741.1
07/09 03:20 24.1 83 18.16 21 7 13 1014.2 0 39.3 38.9 74.2 196.2 214.6 745.4
07/09 03:10 23.7 85 18.18 21 7 13 1014.2 0 39.3 39.1 74.7 197.5 216.1 750.4
07/09 03:00 23.6 84 17.86 20.7 7 9 1014.5 0 38.7 38.6 73.3 193.8 211.5 734.4
07/09 02:50 23.9 83 17.96 20.8 9 9 1014.4 0 38.9 38.6 73.5 194.2 212.2 736.8
07/09 02:40 23.4 87 18.29 21.1 7 7 1014.6 0 39.6 39.5 75.5 199.7 218.7 759.5
07/09 02:30 22.3 91 17.97 20.8 2 9 1014.7 0 39.0 39.4 75.1 198.6 217.0 753.2
07/09 02:20 22.4 90 17.87 20.7 2 6 1014.7 0 38.8 39.2 74.5 197.0 215.1 746.8
07/09 02:10 22.5 90 17.98 20.8 6 6 1014.7 0 39.0 39.3 74.9 198.2 216.6 751.8
07/09 02:00 22.6 89 17.88 20.7 6 7 1014.8 0 38.8 39.1 74.4 196.7 214.7 745.4
07/09 01:50 22.8 89 18.08 20.9 7 7 1014.8 0 39.2 39.4 75.1 198.7 217.3 754.3
07/09 01:40 23 88 18.09 20.9 7 7 1014.9 0 39.2 39.3 75.0 198.3 216.8 752.9
07/09 01:30 23.4 86 18.08 20.9 6 7 1015.1 0 39.2 39.1 74.6 197.1 215.6 748.4
07/09 01:20 23.5 84 17.76 20.6 6 6 1015.1 0 38.5 38.5 73.0 192.9 210.4 730.3
07/09 01:10 24.9 83 19 21.8 7 11 1015.2 0 41.0 40.2 77.4 204.8 225.4 782.8
07/09 01:00 24.9 83 19 21.8 7 11 1015.3 0 41.0 40.2 77.4 204.8 225.4 782.9
07/09 00:50 24.9 83 19 21.8 7 11 1015.4 0 41.0 40.2 77.4 204.8 225.4 782.9
07/09 00:40 24.7 83 18.79 21.6 7 11 1015.5 0 40.5 39.9 76.6 202.7 222.8 773.7
07/09 00:30 24.7 85 19.24 22 7 11 1015.6 0 41.5 40.7 78.8 208.4 229.8 798.1
07/09 00:20 23.7 85 18.18 21 6 9 1015.6 0 39.3 39.2 74.8 197.7 216.3 751.1
07/09 00:10 24.1 83 18.16 21 6 9 1015.6 0 39.2 39.0 74.3 196.4 214.8 746.1
07/09 00:00 24.4 84 18.69 21.5 6 9 1015.7 0 40.3 39.8 76.5 202.3 222.2 771.5
06/09 23:50 24.7 83 18.79 21.6 6 7 1015.7 0 40.5 39.9 76.7 202.7 222.8 773.8
06/09 23:40 24.8 83 18.89 21.7 6 9 1015.6 0 40.7 40.0 77.0 203.7 224.0 778.1
06/09 23:30 24.8 83 18.89 21.7 6 9 1015.8 0 40.7 40.0 77.0 203.8 224.1 778.2
06/09 23:20 24.8 83 18.89 21.7 6 9 1015.7 0 40.7 40.0 77.0 203.7 224.1 778.2
06/09 23:10 24.8 83 18.89 21.7 6 7 1015.7 0 40.7 40.0 77.0 203.7 224.1 778.2
06/09 23:00 24.8 83 18.89 21.7 6 7 1015.7 0 40.7 40.0 77.0 203.7 224.1 778.2
06/09 22:50 24.9 82 18.77 21.6 7 9 1015.6 0 40.5 39.8 76.4 201.9 221.9 770.7
06/09 22:40 24.9 82 18.77 21.6 7 9 1015.5 0 40.5 39.8 76.3 201.9 221.9 770.6
06/09 22:30 25 81 18.65 21.5 7 9 1015.7 0 40.2 39.5 75.7 200.2 219.8 763.3
06/09 22:20 25.1 81 18.75 21.6 7 9 1015.6 0 40.4 39.6 76.1 201.2 221.0 767.6
06/09 22:10 25.1 80 18.52 21.4 7 11 1015.7 0 39.9 39.2 75.0 198.3 217.5 755.4
06/09 22:00 25.1 79 18.29 21.2 7 9 1015.7 0 39.4 38.8 73.9 195.5 214.0 743.2
06/09 21:50 25.2 78 18.16 21.1 7 11 1015.5 0 39.1 38.5 73.2 193.6 211.7 735.3
06/09 21:40 25.3 78 18.26 21.2 9 13 1015.4 0 39.3 38.6 73.6 194.5 212.9 739.5
06/09 21:30 25.3 77 18.03 21 9 17 1015.4 0 38.9 38.2 72.5 191.7 209.4 727.5
06/09 21:20 25.3 76 17.79 20.8 9 13 1015.3 0 38.3 37.7 71.4 188.8 205.8 714.9
06/09 21:10 25.4 75 17.66 20.6 9 15 1015.1 0 38.1 37.4 70.7 186.9 203.6 707.1
06/09 21:00 25.4 75 17.66 20.6 9 13 1015.1 0 38.1 37.4 70.7 186.9 203.6 707.1
06/09 20:50 25.3 75 17.56 20.5 9 13 1014.9 0 37.9 37.3 70.3 185.9 202.4 702.8
06/09 20:40 25.3 75 17.56 20.5 9 15 1014.7 0 37.9 37.3 70.3 185.9 202.3 702.7
06/09 20:30 25.3 74 17.32 20.3 9 13 1014.7 0 37.4 36.8 69.2 183.0 198.8 690.3
06/09 20:20 25.3 74 17.32 20.3 9 13 1014.5 0 37.4 36.8 69.2 183.0 198.8 690.2
06/09 20:10 25.4 74 17.42 20.4 9 13 1014.4 0 37.6 37.0 69.6 183.9 200.0 694.4
06/09 20:00 25.4 74 17.42 20.4 9 13 1014.3 0 37.6 37.0 69.6 183.9 199.9 694.4
06/09 19:50 25.5 73 17.28 20.3 9 13 1014 0 37.3 36.7 68.8 181.9 197.6 686.2
06/09 19:40 25.5 73 17.28 20.3 9 15 1013.9 0 37.3 36.7 68.8 181.9 197.6 686.1
06/09 19:30 25.5 73 17.28 20.3 9 13 1013.9 0 37.3 36.7 68.8 181.9 197.6 686.1
06/09 19:20 25.7 72 17.24 20.3 9 13 1013.7 0 37.2 36.5 68.4 181.0 196.4 682.2
06/09 19:10 25.8 71 17.09 20.1 7 11 1013.7 0 36.8 36.2 67.7 178.9 194.0 673.7
06/09 19:00 25.9 71 17.19 20.2 9 13 1013.6 0 37.0 36.3 68.0 179.9 195.2 677.8
06/09 18:50 26 70 17.04 20.1 9 13 1013.4 0 36.7 36.0 67.3 177.8 192.7 669.3
06/09 18:40 26.3 69 17.08 20.2 9 11 1013.2 0 36.8 35.9 67.2 177.6 192.5 668.6
06/09 18:30 26.4 68 16.93 20 9 13 1013.2 0 36.4 35.6 66.4 175.6 190.1 660.2
06/09 18:20 26.7 67 16.96 20.1 9 17 1012.9 0 36.5 35.5 66.3 175.2 189.7 659.0
06/09 18:10 26.8 65 16.54 19.7 13 19 1012.8 0 35.6 34.8 64.4 170.1 183.5 637.3
06/09 18:00 27.1 64 16.56 19.7 13 20 1012.9 0 35.6 34.7 64.2 169.7 183.1 635.9
06/09 17:50 27.3 65 17.01 20.1 13 19 1012.6 0 36.5 35.4 66.0 174.4 188.9 656.2
06/09 17:40 27.8 61 16.41 19.6 15 20 1012.5 0 35.2 34.1 63.0 166.4 179.3 622.7
06/09 17:30 27.8 61 16.41 19.6 15 20 1012.6 0 35.2 34.1 63.0 166.5 179.3 622.8
06/09 17:20 27.9 61 16.5 19.7 17 22 1012.5 0 35.4 34.2 63.3 167.2 180.3 626.3
06/09 17:10 28.3 59 16.31 19.5 17 24 1012.5 0 35.0 33.8 62.2 164.3 176.7 613.9
06/09 17:00 28.3 56 15.48 18.7 17 22 1012.4 0 33.2 32.4 58.7 155.1 165.5 574.6
06/09 16:50 28.5 58 16.21 19.4 17 22 1012.4 0 34.7 33.5 61.6 162.7 174.9 607.5
06/09 16:40 28.5 56 15.65 18.9 17 26 1012.3 0 33.6 32.6 59.2 156.5 167.3 581.0
06/09 16:30 29.3 55 16.06 19.3 17 26 1012.3 0 34.4 32.9 60.3 159.4 171.1 594.2
06/09 16:20 29.4 53 15.56 18.8 17 26 1012.1 0 33.3 32.1 58.2 153.8 164.1 570.2
06/09 16:10 29.5 55 16.24 19.5 17 26 1012 0 34.7 33.2 60.9 160.9 173.0 601.0
06/09 16:00 29.7 53 15.82 19.1 19 26 1012.1 0 33.8 32.4 59.0 156.0 166.9 580.0
06/09 15:50 29.1 54 15.6 18.8 19 24 1012 0 33.4 32.2 58.6 154.8 165.3 574.2
06/09 15:40 29.3 54 15.77 19 19 28 1012.1 0 33.8 32.5 59.1 156.2 167.1 580.6
06/09 15:30 29.1 52 15.02 18.2 19 26 1012.4 0 32.2 31.3 56.3 148.6 157.7 547.6
06/09 15:20 30.1 48 14.64 17.9 17 28 1012.3 0 31.3 30.4 54.1 142.7 150.8 523.6
06/09 15:10 30.6 52 16.29 19.6 19 26 1012.4 0 34.7 32.8 60.3 159.3 171.3 595.1
06/09 15:00 29.2 56 16.26 19.5 20 28 1012.7 0 34.8 33.3 61.2 161.9 174.0 604.6
06/09 14:50 30.4 57 17.67 20.9 20 26 1012.7 0 37.6 35.2 66.2 175.0 190.5 662.0
06/09 14:40 30.1 54 16.47 19.8 20 28 1012.8 0 35.1 33.3 61.4 162.3 174.8 607.5
06/09 14:30 30.1 50 15.25 18.5 20 28 1012.9 0 32.6 31.4 56.5 149.2 158.7 551.3
06/09 14:20 30.6 52 16.29 19.6 22 28 1013 0 34.7 32.9 60.3 159.4 171.3 595.4
06/09 14:10 29.9 52 15.69 19 20 30 1013.2 0 33.5 32.1 58.4 154.3 164.9 573.0
06/09 14:00 30 54 16.38 19.7 20 30 1013.5 0 35.0 33.3 61.2 161.6 173.9 604.4
06/09 13:50 30.7 53 16.69 20 20 26 1013.6 0 35.5 33.5 61.9 163.6 176.5 613.5
06/09 13:40 30.6 54 16.92 20.2 20 32 1013.7 0 36.0 33.9 62.9 166.3 179.9 625.1
06/09 13:30 30.5 43 13.4 16.5 19 26 1013.9 0 28.7 28.4 49.1 129.6 134.7 467.5
06/09 13:20 32 39 13.17 16.3 19 26 1013.9 0 28.2 27.6 47.4 125.0 129.4 449.2
06/09 13:10 31 40 12.8 15.8 20 30 1013.9 0 27.5 27.3 46.6 122.9 126.6 439.2
06/09 13:00 31.6 38 12.56 15.5 17 28 1014.2 0 26.9 26.8 45.4 119.7 122.8 426.1
06/09 12:50 31.5 37 12.17 15 19 32 1014.3 0 26.1 26.3 44.1 116.2 118.4 410.7
06/09 12:40 31.5 35 11.51 14.2 17 24 1014.5 0 24.8 25.3 41.8 110.0 110.8 384.0
06/09 12:30 30.9 37 11.78 14.5 20 30 1014.8 0 25.3 25.9 43.0 113.4 114.8 397.9
06/09 12:20 31.1 38 12.23 15.1 20 26 1014.9 0 26.3 26.5 44.5 117.4 119.8 415.3
06/09 12:10 31.3 37 12.04 14.9 15 20 1015.1 0 25.9 26.2 43.8 115.3 117.3 406.6
06/09 12:00 29.7 47 14.03 17.2 13 20 1015.4 0 30.1 29.7 52.1 137.5 144.1 500.3
06/09 11:50 29.9 63 19.01 22.1 17 22 1015.4 0 40.5 37.9 72.6 191.9 211.1 733.7
06/09 11:40 29.2 67 19.46 22.4 15 20 1015.6 0 41.5 39.0 75.3 199.1 219.6 763.4
06/09 11:30 28.7 63 17.8 21 15 19 1016 0 38.0 36.3 68.4 180.8 197.0 684.7
06/09 11:20 29.6 59 17.51 20.7 11 17 1016 0 37.3 35.4 66.4 175.4 190.7 662.7
06/09 11:10 29.2 61 17.72 20.9 13 17 1016.2 0 37.8 36.0 67.6 178.8 194.7 676.5

Last Refresh: 07-Sep-2026 03:54:09

Bureau of Meteorology